ADDS METAR Data INFO
IDs: Format: Raw Decoded Include TAF

Data at: 0752 UTC 17 Oct 2017

KSGH 170656Z AUTO 00000KT 10SM CLR 06/03 A3031 RMK AO2 SLP269 T00560028 $
KSGH 170556Z AUTO 18003KT 10SM CLR 03/03 A3030 RMK AO2 SLP268 T00330028 10100 20033 58003 $
KSGH 170456Z AUTO 00000KT 10SM CLR 04/03 A3030 RMK AO2 SLP267 T00390028 $
KSGH 170356Z AUTO 00000KT 10SM CLR 04/03 A3032 RMK AO2 SLP272 T00440033 401560039 $
KSGH 170156Z AUTO 00000KT 10SM CLR 06/04 A3031 RMK AO2 SLP270 T00560044 $
KSGH 170056Z AUTO 00000KT 10SM CLR 07/04 A3030 RMK AO2 SLP267 T00670044 $
KSGH 162356Z AUTO 00000KT 10SM CLR 08/05 A3029 RMK AO2 SLP266 T00830050 10156 20083 53006 $
KSGH 162256Z AUTO 35003KT 10SM FEW065 12/04 A3028 RMK AO2 SLP260 T01170039 $
KSGH 162156Z AUTO 31009KT 10SM OVC065 15/03 A3027 RMK AO2 SLP256 T01500028 $
KSGH 162056Z AUTO 36006KT 10SM BKN065 13/03 A3028 RMK AO2 SLP258 T01330033 56005 $
KSGH 161956Z AUTO 36005KT 10SM OVC060 15/03 A3028 RMK AO2 SLP259 T01500028 $
KSGH 161856Z AUTO 36008KT 10SM SCT049 BKN060 13/03 A3028 RMK AO2 SLP259 T01330033 $
KSGH 161756Z AUTO 33008KT 10SM SCT046 SCT060 14/04 A3029 RMK AO2 SLP262 T01440039 10150 20056 58006 $
KSGH 161656Z AUTO 29012KT 10SM BKN036 BKN055 14/06 A3032 RMK AO2 SLP270 T01440056 $
KSGH 161619Z AUTO 28009KT 10SM SCT028 BKN036 BKN050 14/07 A3032 RMK AO2 $
KSGH 161556Z AUTO 33008KT 10SM BKN026 BKN035 12/06 A3032 RMK AO2 SLP271 T01220061 $
KSGH 161526Z AUTO 32010KT 10SM BKN026 12/06 A3031 RMK AO2 $
KSGH 161456Z AUTO 34006KT 10SM CLR 12/06 A3031 RMK AO2 SLP268 T01170061 50013 $
KSGH 161356Z AUTO 34008KT 10SM CLR 09/07 A3031 RMK AO2 SLP270 T00940067 $
KSGH 161256Z AUTO 33007KT 10SM FEW060 07/06 A3029 RMK AO2 SLP264 T00720061 $
KSGH 161156Z AUTO 30004KT 4SM BR BKN001 06/05 A3027 RMK AO2 SLP256 T00560050 10083 20050 53015 $
KSGH 161152Z AUTO 30005KT 2SM BR BKN001 06/05 A3027 RMK AO2 $
KSGH 161149Z AUTO 30005KT 1SM BR BKN001 06/05 A3027 RMK AO2 $
KSGH 161146Z AUTO 30005KT 1/2SM FG BKN001 06/05 A3027 RMK AO2 $
KSGH 161139Z AUTO 29006KT 3/4SM BR BKN001 06/05 A3027 RMK AO2 $
KSGH 161137Z AUTO 29006KT 1 1/4SM BR BKN001 05/05 A3027 RMK AO2 $
KSGH 161135Z AUTO 29005KT 2 1/2SM BR SCT001 05/05 A3027 RMK AO2 $
KSGH 161056Z AUTO 31005KT 10SM CLR 05/04 A3025 RMK AO2 SLP250 T00500044 $
KSGH 160956Z AUTO 30005KT 10SM CLR 06/06 A3024 RMK AO2 SLP245 T00560056 $
KSGH 160856Z AUTO 29007KT 10SM CLR 06/05 A3022 RMK AO2 SLP240 T00560050 51009 $
KSGH 160756Z AUTO 32003KT 10SM CLR 07/06 A3022 RMK AO2 SLP237 T00670061 $
KSGH 160656Z AUTO 33004KT 10SM CLR 07/06 A3021 RMK AO2 SLP234 T00720061 $
KSGH 160556Z AUTO 32008KT 10SM CLR 08/07 A3020 RMK AO2 SLP225 60000 T00830067 10122 20083 51014 $
KSGH 160456Z AUTO 33009KT 10SM SCT038 09/07 A3019 RMK AO2 SLP221 T00890067 $
KSGH 160422Z AUTO 34011KT 10SM FEW022 SCT028 09/07 A3018 RMK AO2 $
KSGH 160411Z AUTO 34014G17KT 10SM BKN022 10/07 A3018 RMK AO2 $
KSGH 160356Z AUTO 33012KT 10SM SCT022 10/07 A3017 RMK AO2 RAB0258E26 SLP217 P0000 T01000072 402440100 $
KSGH 160340Z AUTO 35009KT 10SM FEW015 SCT020 BKN047 10/08 A3017 RMK AO2 RAB0258E26 P0000 $
KSGH 160256Z AUTO 31010KT 10SM BKN020 OVC029 12/08 A3015 RMK AO2 SLP211 T01170078 53023 $
KSGH 160156Z AUTO 32015KT 10SM BKN025 OVC044 12/08 A3013 RMK AO2 SLP203 T01170078 $
KSGH 160111Z AUTO 29012KT 10SM BKN027 OVC035 12/07 A3011 RMK AO2 $
KSGH 160056Z AUTO 30010KT 10SM SCT027 OVC035 12/07 A3011 RMK AO2 SLP195 T01170072 $
KSGH 152356Z AUTO 30012KT 10SM OVC031 12/07 A3009 RMK AO2 SLP187 60000 T01220072 10239 20122 51030 $
KSGH 152343Z AUTO 30012G21KT 10SM OVC031 12/07 A3008 RMK AO2 $
KSGH 152311Z AUTO 31016G21KT 10SM OVC029 12/07 A3006 RMK AO2 $
KSGH 152256Z AUTO 30015G20KT 10SM OVC031 12/07 A3005 RMK AO2 SLP176 T01220072 $
KSGH 152156Z AUTO 29018G26KT 10SM OVC027 13/08 A3003 RMK AO2 PK WND 30027/2145 SLP169 T01280078 $
KSGH 152056Z AUTO 30017G24KT 10SM BKN017 OVC055 14/11 A3000 RMK AO2 PK WND 28026/2026 RAE54 SLP156 P0000 60000 T01440111 51031 $
KSGH 151956Z AUTO 29019G26KT 7SM -RA FEW021 OVC033 15/12 A2997 RMK AO2 PK WND 29027/1946 SLP147 P0000 T01500117 $